sensor_id;sensor_type;location;lat;lon;timestamp;P1;durP1;ratioP1;P2;durP2;ratioP2
49722;SDS011;43484;43.608;1.458;2024-01-07T00:00:53;5.47;;;2.22;;
49722;SDS011;43484;43.608;1.458;2024-01-07T00:03:20;4.63;;;2.70;;
49722;SDS011;43484;43.608;1.458;2024-01-07T00:05:47;8.90;;;3.15;;
49722;SDS011;43484;43.608;1.458;2024-01-07T00:08:14;3.88;;;2.30;;
49722;SDS011;43484;43.608;1.458;2024-01-07T00:10:40;12.55;;;2.13;;
49722;SDS011;43484;43.608;1.458;2024-01-07T00:13:07;6.18;;;2.67;;
49722;SDS011;43484;43.608;1.458;2024-01-07T00:15:34;4.00;;;2.55;;
49722;SDS011;43484;43.608;1.458;2024-01-07T00:18:00;7.88;;;2.22;;
49722;SDS011;43484;43.608;1.458;2024-01-07T00:20:27;4.95;;;2.25;;
49722;SDS011;43484;43.608;1.458;2024-01-07T00:22:54;5.00;;;2.33;;
49722;SDS011;43484;43.608;1.458;2024-01-07T00:25:22;6.88;;;2.90;;
49722;SDS011;43484;43.608;1.458;2024-01-07T00:27:49;4.43;;;1.80;;
49722;SDS011;43484;43.608;1.458;2024-01-07T00:30:18;4.63;;;2.25;;
49722;SDS011;43484;43.608;1.458;2024-01-07T00:32:45;6.40;;;2.38;;
49722;SDS011;43484;43.608;1.458;2024-01-07T00:35:12;9.32;;;2.58;;
49722;SDS011;43484;43.608;1.458;2024-01-07T00:37:38;4.55;;;2.20;;
49722;SDS011;43484;43.608;1.458;2024-01-07T00:40:05;4.03;;;2.30;;
49722;SDS011;43484;43.608;1.458;2024-01-07T00:42:33;7.28;;;2.40;;
49722;SDS011;43484;43.608;1.458;2024-01-07T00:44:59;5.38;;;2.40;;
49722;SDS011;43484;43.608;1.458;2024-01-07T00:47:26;5.65;;;2.40;;
49722;SDS011;43484;43.608;1.458;2024-01-07T00:49:53;5.32;;;2.53;;
49722;SDS011;43484;43.608;1.458;2024-01-07T00:52:20;3.25;;;2.55;;
49722;SDS011;43484;43.608;1.458;2024-01-07T00:54:48;4.57;;;2.88;;
49722;SDS011;43484;43.608;1.458;2024-01-07T00:57:14;8.27;;;2.83;;
49722;SDS011;43484;43.608;1.458;2024-01-07T00:59:41;5.32;;;2.55;;
49722;SDS011;43484;43.608;1.458;2024-01-07T01:02:07;4.60;;;2.90;;
49722;SDS011;43484;43.608;1.458;2024-01-07T01:04:37;5.00;;;2.72;;
49722;SDS011;43484;43.608;1.458;2024-01-07T01:07:05;4.30;;;2.53;;
49722;SDS011;43484;43.608;1.458;2024-01-07T01:09:34;4.65;;;2.47;;
49722;SDS011;43484;43.608;1.458;2024-01-07T01:12:00;8.20;;;2.63;;
49722;SDS011;43484;43.608;1.458;2024-01-07T01:14:27;7.45;;;2.80;;
49722;SDS011;43484;43.608;1.458;2024-01-07T01:16:54;4.40;;;3.13;;
49722;SDS011;43484;43.608;1.458;2024-01-07T01:19:21;6.68;;;2.72;;
49722;SDS011;43484;43.608;1.458;2024-01-07T01:21:47;4.55;;;2.88;;
49722;SDS011;43484;43.608;1.458;2024-01-07T01:24:14;2.92;;;2.30;;
49722;SDS011;43484;43.608;1.458;2024-01-07T01:26:40;6.90;;;2.78;;
49722;SDS011;43484;43.608;1.458;2024-01-07T01:29:07;3.38;;;2.70;;
49722;SDS011;43484;43.608;1.458;2024-01-07T01:31:34;2.92;;;2.10;;
49722;SDS011;43484;43.608;1.458;2024-01-07T01:34:01;5.60;;;2.78;;
49722;SDS011;43484;43.608;1.458;2024-01-07T01:36:27;4.80;;;2.42;;
49722;SDS011;43484;43.608;1.458;2024-01-07T01:38:54;5.68;;;2.70;;
49722;SDS011;43484;43.608;1.458;2024-01-07T01:41:21;3.45;;;2.47;;
49722;SDS011;43484;43.608;1.458;2024-01-07T01:43:47;4.22;;;2.65;;
49722;SDS011;43484;43.608;1.458;2024-01-07T01:46:14;5.88;;;2.40;;
49722;SDS011;43484;43.608;1.458;2024-01-07T01:48:41;4.63;;;2.80;;
49722;SDS011;43484;43.608;1.458;2024-01-07T01:51:09;7.80;;;3.85;;
49722;SDS011;43484;43.608;1.458;2024-01-07T01:53:36;6.75;;;3.30;;
49722;SDS011;43484;43.608;1.458;2024-01-07T01:56:04;5.03;;;2.83;;
49722;SDS011;43484;43.608;1.458;2024-01-07T01:58:31;7.03;;;2.90;;
49722;SDS011;43484;43.608;1.458;2024-01-07T02:00:59;4.95;;;3.38;;
49722;SDS011;43484;43.608;1.458;2024-01-07T02:03:26;4.75;;;2.67;;
49722;SDS011;43484;43.608;1.458;2024-01-07T02:05:52;6.85;;;2.55;;
49722;SDS011;43484;43.608;1.458;2024-01-07T02:08:19;5.45;;;3.10;;
49722;SDS011;43484;43.608;1.458;2024-01-07T02:10:47;7.40;;;3.25;;
49722;SDS011;43484;43.608;1.458;2024-01-07T02:13:13;6.22;;;3.33;;
49722;SDS011;43484;43.608;1.458;2024-01-07T02:15:40;6.85;;;3.50;;
49722;SDS011;43484;43.608;1.458;2024-01-07T02:18:07;4.15;;;2.83;;
49722;SDS011;43484;43.608;1.458;2024-01-07T02:20:33;5.22;;;2.88;;
49722;SDS011;43484;43.608;1.458;2024-01-07T02:23:02;8.02;;;3.40;;
49722;SDS011;43484;43.608;1.458;2024-01-07T02:25:34;5.97;;;3.22;;
49722;SDS011;43484;43.608;1.458;2024-01-07T02:28:02;7.60;;;3.03;;
49722;SDS011;43484;43.608;1.458;2024-01-07T02:30:29;7.75;;;3.88;;
49722;SDS011;43484;43.608;1.458;2024-01-07T02:33:00;6.95;;;3.05;;
49722;SDS011;43484;43.608;1.458;2024-01-07T02:35:27;6.55;;;2.92;;
49722;SDS011;43484;43.608;1.458;2024-01-07T02:37:54;6.38;;;3.17;;
49722;SDS011;43484;43.608;1.458;2024-01-07T02:40:20;7.82;;;2.95;;
49722;SDS011;43484;43.608;1.458;2024-01-07T02:42:47;5.70;;;3.10;;
49722;SDS011;43484;43.608;1.458;2024-01-07T02:45:14;5.45;;;3.22;;
49722;SDS011;43484;43.608;1.458;2024-01-07T02:47:41;4.97;;;2.67;;
49722;SDS011;43484;43.608;1.458;2024-01-07T02:50:07;4.75;;;3.15;;
49722;SDS011;43484;43.608;1.458;2024-01-07T02:52:34;5.72;;;2.55;;
49722;SDS011;43484;43.608;1.458;2024-01-07T02:55:01;6.82;;;3.30;;
49722;SDS011;43484;43.608;1.458;2024-01-07T02:57:30;8.63;;;3.08;;
49722;SDS011;43484;43.608;1.458;2024-01-07T02:59:57;4.30;;;2.97;;
49722;SDS011;43484;43.608;1.458;2024-01-07T03:02:24;6.15;;;3.10;;
49722;SDS011;43484;43.608;1.458;2024-01-07T03:04:51;3.13;;;2.83;;
49722;SDS011;43484;43.608;1.458;2024-01-07T03:07:17;7.97;;;2.65;;
49722;SDS011;43484;43.608;1.458;2024-01-07T03:09:44;8.88;;;3.00;;
49722;SDS011;43484;43.608;1.458;2024-01-07T03:12:17;6.22;;;2.63;;
49722;SDS011;43484;43.608;1.458;2024-01-07T03:14:43;6.38;;;3.03;;
49722;SDS011;43484;43.608;1.458;2024-01-07T03:17:10;4.20;;;3.10;;
49722;SDS011;43484;43.608;1.458;2024-01-07T03:19:37;3.88;;;2.25;;
49722;SDS011;43484;43.608;1.458;2024-01-07T03:22:04;4.97;;;2.80;;
49722;SDS011;43484;43.608;1.458;2024-01-07T03:24:33;2.80;;;2.50;;
49722;SDS011;43484;43.608;1.458;2024-01-07T03:27:00;3.67;;;2.63;;
49722;SDS011;43484;43.608;1.458;2024-01-07T03:29:27;4.88;;;2.30;;
49722;SDS011;43484;43.608;1.458;2024-01-07T03:31:53;5.97;;;2.08;;
49722;SDS011;43484;43.608;1.458;2024-01-07T03:34:20;4.70;;;2.17;;
49722;SDS011;43484;43.608;1.458;2024-01-07T03:36:47;4.78;;;1.70;;
49722;SDS011;43484;43.608;1.458;2024-01-07T03:39:13;3.05;;;1.98;;
49722;SDS011;43484;43.608;1.458;2024-01-07T03:41:40;6.30;;;2.35;;
49722;SDS011;43484;43.608;1.458;2024-01-07T03:44:06;4.78;;;2.90;;
49722;SDS011;43484;43.608;1.458;2024-01-07T03:46:33;3.85;;;2.25;;
49722;SDS011;43484;43.608;1.458;2024-01-07T03:49:00;7.05;;;2.53;;
49722;SDS011;43484;43.608;1.458;2024-01-07T03:51:26;4.82;;;2.40;;
49722;SDS011;43484;43.608;1.458;2024-01-07T03:53:53;2.92;;;1.95;;
49722;SDS011;43484;43.608;1.458;2024-01-07T03:56:20;3.42;;;2.50;;
49722;SDS011;43484;43.608;1.458;2024-01-07T03:58:46;3.13;;;2.20;;
49722;SDS011;43484;43.608;1.458;2024-01-07T04:01:16;3.78;;;2.38;;
49722;SDS011;43484;43.608;1.458;2024-01-07T04:03:44;3.00;;;2.28;;
49722;SDS011;43484;43.608;1.458;2024-01-07T04:06:11;5.65;;;2.10;;
49722;SDS011;43484;43.608;1.458;2024-01-07T04:08:38;4.55;;;2.00;;
49722;SDS011;43484;43.608;1.458;2024-01-07T04:11:04;4.38;;;2.35;;
49722;SDS011;43484;43.608;1.458;2024-01-07T04:13:31;3.35;;;1.95;;
49722;SDS011;43484;43.608;1.458;2024-01-07T04:15:57;4.43;;;2.40;;
49722;SDS011;43484;43.608;1.458;2024-01-07T04:18:24;4.32;;;1.85;;
49722;SDS011;43484;43.608;1.458;2024-01-07T04:20:51;3.63;;;2.28;;
49722;SDS011;43484;43.608;1.458;2024-01-07T04:23:18;3.65;;;1.88;;
49722;SDS011;43484;43.608;1.458;2024-01-07T04:25:44;3.90;;;2.00;;
49722;SDS011;43484;43.608;1.458;2024-01-07T04:28:11;9.00;;;2.10;;
49722;SDS011;43484;43.608;1.458;2024-01-07T04:30:38;5.40;;;2.40;;
49722;SDS011;43484;43.608;1.458;2024-01-07T04:33:04;6.07;;;2.08;;
49722;SDS011;43484;43.608;1.458;2024-01-07T04:35:31;5.28;;;2.35;;
49722;SDS011;43484;43.608;1.458;2024-01-07T04:37:58;3.50;;;2.42;;
49722;SDS011;43484;43.608;1.458;2024-01-07T04:40:24;2.78;;;1.95;;
49722;SDS011;43484;43.608;1.458;2024-01-07T04:42:51;4.07;;;2.15;;
49722;SDS011;43484;43.608;1.458;2024-01-07T04:45:18;4.93;;;2.25;;
49722;SDS011;43484;43.608;1.458;2024-01-07T04:47:44;5.00;;;2.10;;
49722;SDS011;43484;43.608;1.458;2024-01-07T04:50:11;4.50;;;2.22;;
49722;SDS011;43484;43.608;1.458;2024-01-07T04:52:40;5.75;;;3.20;;
49722;SDS011;43484;43.608;1.458;2024-01-07T04:55:07;4.35;;;2.40;;
49722;SDS011;43484;43.608;1.458;2024-01-07T04:57:35;3.03;;;2.40;;
49722;SDS011;43484;43.608;1.458;2024-01-07T05:00:01;3.40;;;2.13;;
49722;SDS011;43484;43.608;1.458;2024-01-07T05:02:29;8.38;;;2.80;;
49722;SDS011;43484;43.608;1.458;2024-01-07T05:04:56;4.38;;;2.53;;
49722;SDS011;43484;43.608;1.458;2024-01-07T05:07:23;4.90;;;2.45;;
49722;SDS011;43484;43.608;1.458;2024-01-07T05:09:49;4.90;;;2.42;;
49722;SDS011;43484;43.608;1.458;2024-01-07T05:12:16;7.30;;;3.08;;
49722;SDS011;43484;43.608;1.458;2024-01-07T05:14:43;5.50;;;2.55;;
49722;SDS011;43484;43.608;1.458;2024-01-07T05:17:09;6.95;;;2.60;;
49722;SDS011;43484;43.608;1.458;2024-01-07T05:19:36;4.10;;;3.17;;
49722;SDS011;43484;43.608;1.458;2024-01-07T05:22:07;4.50;;;2.42;;
49722;SDS011;43484;43.608;1.458;2024-01-07T05:24:38;5.85;;;2.20;;
49722;SDS011;43484;43.608;1.458;2024-01-07T05:27:08;7.40;;;2.97;;
49722;SDS011;43484;43.608;1.458;2024-01-07T05:29:35;5.45;;;2.80;;
49722;SDS011;43484;43.608;1.458;2024-01-07T05:32:02;5.30;;;2.20;;
49722;SDS011;43484;43.608;1.458;2024-01-07T05:34:29;6.68;;;2.60;;
49722;SDS011;43484;43.608;1.458;2024-01-07T05:36:56;4.78;;;2.55;;
49722;SDS011;43484;43.608;1.458;2024-01-07T05:39:23;3.55;;;2.88;;
49722;SDS011;43484;43.608;1.458;2024-01-07T05:41:49;2.78;;;2.47;;
49722;SDS011;43484;43.608;1.458;2024-01-07T05:44:16;4.93;;;2.70;;
49722;SDS011;43484;43.608;1.458;2024-01-07T05:46:43;5.22;;;3.20;;
49722;SDS011;43484;43.608;1.458;2024-01-07T05:49:09;6.15;;;2.78;;
49722;SDS011;43484;43.608;1.458;2024-01-07T05:51:40;5.90;;;2.78;;
49722;SDS011;43484;43.608;1.458;2024-01-07T05:54:07;4.72;;;2.53;;
49722;SDS011;43484;43.608;1.458;2024-01-07T05:56:40;9.15;;;3.00;;
49722;SDS011;43484;43.608;1.458;2024-01-07T05:59:08;6.63;;;2.67;;
49722;SDS011;43484;43.608;1.458;2024-01-07T06:01:35;6.13;;;2.78;;
49722;SDS011;43484;43.608;1.458;2024-01-07T06:04:02;3.05;;;2.50;;
49722;SDS011;43484;43.608;1.458;2024-01-07T06:06:29;6.68;;;2.60;;
49722;SDS011;43484;43.608;1.458;2024-01-07T06:08:56;7.43;;;2.58;;
49722;SDS011;43484;43.608;1.458;2024-01-07T06:11:22;4.55;;;2.60;;
49722;SDS011;43484;43.608;1.458;2024-01-07T06:13:49;5.97;;;2.50;;
49722;SDS011;43484;43.608;1.458;2024-01-07T06:16:15;3.35;;;2.40;;
49722;SDS011;43484;43.608;1.458;2024-01-07T06:18:42;5.28;;;1.95;;
49722;SDS011;43484;43.608;1.458;2024-01-07T06:21:10;3.85;;;2.08;;
49722;SDS011;43484;43.608;1.458;2024-01-07T06:23:36;2.58;;;2.10;;
49722;SDS011;43484;43.608;1.458;2024-01-07T06:26:03;2.70;;;2.05;;
49722;SDS011;43484;43.608;1.458;2024-01-07T06:28:30;5.88;;;2.08;;
49722;SDS011;43484;43.608;1.458;2024-01-07T06:30:58;4.38;;;2.15;;
49722;SDS011;43484;43.608;1.458;2024-01-07T06:33:26;3.15;;;2.05;;
49722;SDS011;43484;43.608;1.458;2024-01-07T06:35:53;2.90;;;1.70;;
49722;SDS011;43484;43.608;1.458;2024-01-07T06:38:19;5.38;;;1.90;;
49722;SDS011;43484;43.608;1.458;2024-01-07T06:40:50;2.22;;;1.52;;
49722;SDS011;43484;43.608;1.458;2024-01-07T06:43:17;2.63;;;2.22;;
49722;SDS011;43484;43.608;1.458;2024-01-07T06:45:43;3.60;;;2.08;;
49722;SDS011;43484;43.608;1.458;2024-01-07T06:48:11;2.92;;;1.80;;
49722;SDS011;43484;43.608;1.458;2024-01-07T06:50:37;2.65;;;1.80;;
49722;SDS011;43484;43.608;1.458;2024-01-07T06:53:04;5.68;;;2.00;;
49722;SDS011;43484;43.608;1.458;2024-01-07T06:55:31;6.28;;;2.20;;
49722;SDS011;43484;43.608;1.458;2024-01-07T06:57:57;2.75;;;1.95;;
49722;SDS011;43484;43.608;1.458;2024-01-07T07:00:24;2.60;;;1.92;;
49722;SDS011;43484;43.608;1.458;2024-01-07T07:02:51;4.97;;;1.88;;
49722;SDS011;43484;43.608;1.458;2024-01-07T07:05:18;1.75;;;1.60;;
49722;SDS011;43484;43.608;1.458;2024-01-07T07:07:44;3.58;;;1.50;;
49722;SDS011;43484;43.608;1.458;2024-01-07T07:10:12;3.10;;;2.17;;
49722;SDS011;43484;43.608;1.458;2024-01-07T07:12:39;5.25;;;1.95;;
49722;SDS011;43484;43.608;1.458;2024-01-07T07:15:06;4.72;;;2.67;;
49722;SDS011;43484;43.608;1.458;2024-01-07T07:17:32;3.35;;;2.15;;
49722;SDS011;43484;43.608;1.458;2024-01-07T07:19:59;4.38;;;2.53;;
49722;SDS011;43484;43.608;1.458;2024-01-07T07:22:27;1.95;;;1.75;;
49722;SDS011;43484;43.608;1.458;2024-01-07T07:24:54;3.00;;;2.25;;
49722;SDS011;43484;43.608;1.458;2024-01-07T07:27:24;4.38;;;2.30;;
49722;SDS011;43484;43.608;1.458;2024-01-07T07:29:51;4.47;;;2.40;;
49722;SDS011;43484;43.608;1.458;2024-01-07T07:32:18;2.60;;;2.03;;
49722;SDS011;43484;43.608;1.458;2024-01-07T07:34:44;3.92;;;2.05;;
49722;SDS011;43484;43.608;1.458;2024-01-07T07:37:14;3.03;;;2.28;;
49722;SDS011;43484;43.608;1.458;2024-01-07T07:39:42;3.38;;;2.00;;
49722;SDS011;43484;43.608;1.458;2024-01-07T07:42:09;3.13;;;1.77;;
49722;SDS011;43484;43.608;1.458;2024-01-07T07:44:36;3.50;;;2.00;;
49722;SDS011;43484;43.608;1.458;2024-01-07T07:47:05;3.53;;;2.42;;
49722;SDS011;43484;43.608;1.458;2024-01-07T07:49:32;3.53;;;2.00;;
49722;SDS011;43484;43.608;1.458;2024-01-07T07:51:58;2.08;;;1.80;;
49722;SDS011;43484;43.608;1.458;2024-01-07T07:54:25;4.15;;;2.15;;
49722;SDS011;43484;43.608;1.458;2024-01-07T07:56:52;5.35;;;2.53;;
49722;SDS011;43484;43.608;1.458;2024-01-07T07:59:19;3.88;;;2.03;;
49722;SDS011;43484;43.608;1.458;2024-01-07T08:01:46;2.80;;;1.88;;
49722;SDS011;43484;43.608;1.458;2024-01-07T08:04:12;2.92;;;1.60;;
49722;SDS011;43484;43.608;1.458;2024-01-07T08:06:39;2.17;;;1.40;;
49722;SDS011;43484;43.608;1.458;2024-01-07T08:09:06;3.50;;;1.98;;
49722;SDS011;43484;43.608;1.458;2024-01-07T08:11:33;2.97;;;1.67;;
49722;SDS011;43484;43.608;1.458;2024-01-07T08:14:02;2.58;;;1.60;;
49722;SDS011;43484;43.608;1.458;2024-01-07T08:16:29;2.10;;;1.67;;
49722;SDS011;43484;43.608;1.458;2024-01-07T08:18:55;3.63;;;1.63;;
49722;SDS011;43484;43.608;1.458;2024-01-07T08:21:23;4.03;;;1.77;;
49722;SDS011;43484;43.608;1.458;2024-01-07T08:23:51;5.68;;;2.10;;
49722;SDS011;43484;43.608;1.458;2024-01-07T08:26:18;2.53;;;1.70;;
49722;SDS011;43484;43.608;1.458;2024-01-07T08:28:46;3.45;;;1.60;;
49722;SDS011;43484;43.608;1.458;2024-01-07T08:31:12;2.08;;;1.40;;
49722;SDS011;43484;43.608;1.458;2024-01-07T08:33:39;4.50;;;1.83;;
49722;SDS011;43484;43.608;1.458;2024-01-07T08:36:06;2.17;;;1.40;;
49722;SDS011;43484;43.608;1.458;2024-01-07T08:38:33;4.70;;;1.73;;
49722;SDS011;43484;43.608;1.458;2024-01-07T08:41:00;3.58;;;1.95;;
49722;SDS011;43484;43.608;1.458;2024-01-07T08:43:27;2.50;;;1.65;;
49722;SDS011;43484;43.608;1.458;2024-01-07T08:45:53;2.97;;;2.10;;
49722;SDS011;43484;43.608;1.458;2024-01-07T08:48:20;2.78;;;1.75;;
49722;SDS011;43484;43.608;1.458;2024-01-07T08:50:47;3.13;;;1.80;;
49722;SDS011;43484;43.608;1.458;2024-01-07T08:53:13;3.33;;;2.17;;
49722;SDS011;43484;43.608;1.458;2024-01-07T08:55:40;2.03;;;1.80;;
49722;SDS011;43484;43.608;1.458;2024-01-07T08:58:07;5.10;;;2.35;;
49722;SDS011;43484;43.608;1.458;2024-01-07T09:00:34;3.53;;;1.85;;
49722;SDS011;43484;43.608;1.458;2024-01-07T09:03:01;4.40;;;2.67;;
49722;SDS011;43484;43.608;1.458;2024-01-07T09:05:27;3.85;;;2.05;;
49722;SDS011;43484;43.608;1.458;2024-01-07T09:07:54;3.53;;;2.10;;
49722;SDS011;43484;43.608;1.458;2024-01-07T09:10:21;2.97;;;2.22;;
49722;SDS011;43484;43.608;1.458;2024-01-07T09:12:48;2.78;;;2.05;;
49722;SDS011;43484;43.608;1.458;2024-01-07T09:15:17;6.18;;;2.33;;
49722;SDS011;43484;43.608;1.458;2024-01-07T09:17:44;2.83;;;1.52;;
49722;SDS011;43484;43.608;1.458;2024-01-07T09:20:11;3.17;;;1.80;;
49722;SDS011;43484;43.608;1.458;2024-01-07T09:22:39;3.75;;;1.60;;
49722;SDS011;43484;43.608;1.458;2024-01-07T09:25:06;3.30;;;1.98;;
49722;SDS011;43484;43.608;1.458;2024-01-07T09:27:33;3.25;;;1.95;;
49722;SDS011;43484;43.608;1.458;2024-01-07T09:30:00;4.93;;;2.28;;
49722;SDS011;43484;43.608;1.458;2024-01-07T09:32:27;4.45;;;1.77;;
49722;SDS011;43484;43.608;1.458;2024-01-07T09:34:54;2.47;;;2.05;;
49722;SDS011;43484;43.608;1.458;2024-01-07T09:37:21;3.42;;;2.30;;
49722;SDS011;43484;43.608;1.458;2024-01-07T09:39:48;4.25;;;1.77;;
49722;SDS011;43484;43.608;1.458;2024-01-07T09:42:16;3.00;;;1.58;;
49722;SDS011;43484;43.608;1.458;2024-01-07T09:44:44;3.92;;;2.10;;
49722;SDS011;43484;43.608;1.458;2024-01-07T09:47:14;6.85;;;2.45;;
49722;SDS011;43484;43.608;1.458;2024-01-07T09:49:42;6.03;;;2.78;;
49722;SDS011;43484;43.608;1.458;2024-01-07T09:52:10;6.85;;;2.33;;
49722;SDS011;43484;43.608;1.458;2024-01-07T09:54:39;4.32;;;2.30;;
49722;SDS011;43484;43.608;1.458;2024-01-07T09:57:09;5.25;;;2.60;;
49722;SDS011;43484;43.608;1.458;2024-01-07T09:59:36;3.28;;;1.75;;
49722;SDS011;43484;43.608;1.458;2024-01-07T10:02:03;2.75;;;1.63;;
49722;SDS011;43484;43.608;1.458;2024-01-07T10:04:31;4.97;;;1.98;;
49722;SDS011;43484;43.608;1.458;2024-01-07T10:06:58;3.22;;;2.05;;
49722;SDS011;43484;43.608;1.458;2024-01-07T10:09:28;3.08;;;1.70;;
49722;SDS011;43484;43.608;1.458;2024-01-07T10:11:56;3.47;;;2.10;;
49722;SDS011;43484;43.608;1.458;2024-01-07T10:14:23;3.13;;;1.65;;
49722;SDS011;43484;43.608;1.458;2024-01-07T10:16:51;3.53;;;2.03;;
49722;SDS011;43484;43.608;1.458;2024-01-07T10:19:21;3.63;;;2.00;;
49722;SDS011;43484;43.608;1.458;2024-01-07T10:21:59;5.35;;;2.70;;
49722;SDS011;43484;43.608;1.458;2024-01-07T10:24:36;3.58;;;1.55;;
49722;SDS011;43484;43.608;1.458;2024-01-07T10:27:07;4.80;;;1.75;;
49722;SDS011;43484;43.608;1.458;2024-01-07T10:29:34;4.78;;;1.98;;
49722;SDS011;43484;43.608;1.458;2024-01-07T10:32:01;4.22;;;1.90;;
49722;SDS011;43484;43.608;1.458;2024-01-07T10:34:31;7.70;;;1.92;;
49722;SDS011;43484;43.608;1.458;2024-01-07T10:36:59;2.33;;;1.63;;
49722;SDS011;43484;43.608;1.458;2024-01-07T10:39:27;4.57;;;2.10;;
49722;SDS011;43484;43.608;1.458;2024-01-07T10:41:55;2.72;;;1.83;;
49722;SDS011;43484;43.608;1.458;2024-01-07T10:44:26;4.05;;;1.63;;
49722;SDS011;43484;43.608;1.458;2024-01-07T10:46:54;4.53;;;1.40;;
49722;SDS011;43484;43.608;1.458;2024-01-07T10:49:22;2.83;;;1.30;;
49722;SDS011;43484;43.608;1.458;2024-01-07T10:52:06;3.30;;;1.30;;
49722;SDS011;43484;43.608;1.458;2024-01-07T10:54:35;3.30;;;1.45;;
49722;SDS011;43484;43.608;1.458;2024-01-07T10:59:39;3.30;;;2.08;;
49722;SDS011;43484;43.608;1.458;2024-01-07T11:02:07;4.75;;;2.65;;
49722;SDS011;43484;43.608;1.458;2024-01-07T11:07:13;2.30;;;1.40;;
49722;SDS011;43484;43.608;1.458;2024-01-07T11:10:02;3.63;;;1.70;;
49722;SDS011;43484;43.608;1.458;2024-01-07T11:12:32;2.55;;;1.17;;
49722;SDS011;43484;43.608;1.458;2024-01-07T11:14:59;2.30;;;1.25;;
49722;SDS011;43484;43.608;1.458;2024-01-07T11:20:05;2.50;;;1.52;;
49722;SDS011;43484;43.608;1.458;2024-01-07T11:22:33;3.67;;;1.23;;
49722;SDS011;43484;43.608;1.458;2024-01-07T11:25:01;5.25;;;1.85;;
49722;SDS011;43484;43.608;1.458;2024-01-07T11:27:29;2.40;;;1.40;;
49722;SDS011;43484;43.608;1.458;2024-01-07T11:30:07;3.97;;;1.38;;
49722;SDS011;43484;43.608;1.458;2024-01-07T11:35:15;3.47;;;1.50;;
49722;SDS011;43484;43.608;1.458;2024-01-07T11:37:42;4.55;;;2.00;;
49722;SDS011;43484;43.608;1.458;2024-01-07T11:40:09;3.72;;;1.60;;
49722;SDS011;43484;43.608;1.458;2024-01-07T11:42:37;3.83;;;1.52;;
49722;SDS011;43484;43.608;1.458;2024-01-07T11:45:04;2.70;;;1.13;;
49722;SDS011;43484;43.608;1.458;2024-01-07T11:47:31;4.85;;;1.80;;
49722;SDS011;43484;43.608;1.458;2024-01-07T11:49:58;3.40;;;1.60;;
49722;SDS011;43484;43.608;1.458;2024-01-07T11:52:26;3.47;;;1.42;;
49722;SDS011;43484;43.608;1.458;2024-01-07T11:54:54;1.85;;;1.58;;
49722;SDS011;43484;43.608;1.458;2024-01-07T11:57:20;7.03;;;1.50;;
49722;SDS011;43484;43.608;1.458;2024-01-07T11:59:47;4.03;;;1.60;;
49722;SDS011;43484;43.608;1.458;2024-01-07T12:02:13;3.70;;;1.60;;
49722;SDS011;43484;43.608;1.458;2024-01-07T12:04:41;3.28;;;2.10;;
49722;SDS011;43484;43.608;1.458;2024-01-07T12:07:08;7.53;;;2.25;;
49722;SDS011;43484;43.608;1.458;2024-01-07T12:09:37;7.68;;;1.80;;
49722;SDS011;43484;43.608;1.458;2024-01-07T12:12:03;5.25;;;2.08;;
49722;SDS011;43484;43.608;1.458;2024-01-07T12:14:30;5.65;;;2.10;;
49722;SDS011;43484;43.608;1.458;2024-01-07T12:16:58;3.08;;;1.67;;
49722;SDS011;43484;43.608;1.458;2024-01-07T12:19:25;2.92;;;1.60;;
49722;SDS011;43484;43.608;1.458;2024-01-07T12:22:05;5.40;;;1.90;;
49722;SDS011;43484;43.608;1.458;2024-01-07T12:24:33;5.07;;;1.40;;
49722;SDS011;43484;43.608;1.458;2024-01-07T12:27:07;2.28;;;1.30;;
49722;SDS011;43484;43.608;1.458;2024-01-07T12:29:34;2.47;;;1.52;;
49722;SDS011;43484;43.608;1.458;2024-01-07T12:32:01;3.70;;;2.05;;
49722;SDS011;43484;43.608;1.458;2024-01-07T12:34:30;2.92;;;1.60;;
49722;SDS011;43484;43.608;1.458;2024-01-07T12:36:57;7.57;;;1.88;;
49722;SDS011;43484;43.608;1.458;2024-01-07T12:39:26;4.50;;;1.52;;
49722;SDS011;43484;43.608;1.458;2024-01-07T12:41:54;5.53;;;2.15;;
49722;SDS011;43484;43.608;1.458;2024-01-07T12:44:20;5.00;;;1.98;;
49722;SDS011;43484;43.608;1.458;2024-01-07T12:46:47;3.70;;;1.90;;
49722;SDS011;43484;43.608;1.458;2024-01-07T12:49:14;2.85;;;1.60;;
49722;SDS011;43484;43.608;1.458;2024-01-07T12:51:42;3.83;;;1.40;;
49722;SDS011;43484;43.608;1.458;2024-01-07T12:54:08;14.27;;;5.93;;
49722;SDS011;43484;43.608;1.458;2024-01-07T12:56:35;5.32;;;1.70;;
49722;SDS011;43484;43.608;1.458;2024-01-07T12:59:02;4.25;;;2.00;;
49722;SDS011;43484;43.608;1.458;2024-01-07T13:01:29;3.50;;;1.60;;
49722;SDS011;43484;43.608;1.458;2024-01-07T13:03:57;5.00;;;2.17;;
49722;SDS011;43484;43.608;1.458;2024-01-07T13:06:25;6.82;;;2.95;;
49722;SDS011;43484;43.608;1.458;2024-01-07T13:08:52;3.60;;;1.80;;
49722;SDS011;43484;43.608;1.458;2024-01-07T13:11:19;3.63;;;2.13;;
49722;SDS011;43484;43.608;1.458;2024-01-07T13:13:45;3.65;;;2.17;;
49722;SDS011;43484;43.608;1.458;2024-01-07T13:16:13;5.35;;;2.97;;
49722;SDS011;43484;43.608;1.458;2024-01-07T13:18:39;4.60;;;2.17;;
49722;SDS011;43484;43.608;1.458;2024-01-07T13:21:06;4.20;;;2.70;;
49722;SDS011;43484;43.608;1.458;2024-01-07T13:23:33;3.65;;;1.50;;
49722;SDS011;43484;43.608;1.458;2024-01-07T13:26:00;2.10;;;1.35;;
49722;SDS011;43484;43.608;1.458;2024-01-07T13:28:28;4.45;;;2.05;;
49722;SDS011;43484;43.608;1.458;2024-01-07T13:30:55;1.63;;;1.20;;
49722;SDS011;43484;43.608;1.458;2024-01-07T13:33:23;2.05;;;1.15;;
49722;SDS011;43484;43.608;1.458;2024-01-07T13:35:50;6.13;;;2.55;;
49722;SDS011;43484;43.608;1.458;2024-01-07T13:38:17;3.25;;;1.42;;
49722;SDS011;43484;43.608;1.458;2024-01-07T13:40:43;5.78;;;1.35;;
49722;SDS011;43484;43.608;1.458;2024-01-07T13:43:10;2.28;;;1.23;;
49722;SDS011;43484;43.608;1.458;2024-01-07T13:45:37;2.88;;;1.40;;
49722;SDS011;43484;43.608;1.458;2024-01-07T13:48:04;3.08;;;1.52;;
49722;SDS011;43484;43.608;1.458;2024-01-07T13:50:34;2.47;;;1.15;;
49722;SDS011;43484;43.608;1.458;2024-01-07T13:53:01;3.42;;;1.00;;
49722;SDS011;43484;43.608;1.458;2024-01-07T13:55:28;1.35;;;0.70;;
49722;SDS011;43484;43.608;1.458;2024-01-07T13:57:55;3.38;;;1.00;;
49722;SDS011;43484;43.608;1.458;2024-01-07T14:00:22;4.80;;;1.02;;
49722;SDS011;43484;43.608;1.458;2024-01-07T14:02:48;5.05;;;1.15;;
49722;SDS011;43484;43.608;1.458;2024-01-07T14:05:16;2.97;;;1.30;;
49722;SDS011;43484;43.608;1.458;2024-01-07T14:07:45;2.50;;;0.90;;
49722;SDS011;43484;43.608;1.458;2024-01-07T14:10:12;1.67;;;0.85;;
49722;SDS011;43484;43.608;1.458;2024-01-07T14:12:40;3.28;;;1.13;;
49722;SDS011;43484;43.608;1.458;2024-01-07T14:15:07;4.50;;;1.60;;
49722;SDS011;43484;43.608;1.458;2024-01-07T14:17:35;4.20;;;1.48;;
49722;SDS011;43484;43.608;1.458;2024-01-07T14:20:02;3.95;;;1.00;;
49722;SDS011;43484;43.608;1.458;2024-01-07T14:22:30;4.93;;;1.20;;
49722;SDS011;43484;43.608;1.458;2024-01-07T14:24:56;1.95;;;0.90;;
49722;SDS011;43484;43.608;1.458;2024-01-07T14:27:23;3.47;;;1.10;;
49722;SDS011;43484;43.608;1.458;2024-01-07T14:29:50;5.70;;;1.13;;
49722;SDS011;43484;43.608;1.458;2024-01-07T14:32:17;6.70;;;1.98;;
49722;SDS011;43484;43.608;1.458;2024-01-07T14:34:44;2.75;;;1.13;;
49722;SDS011;43484;43.608;1.458;2024-01-07T14:37:10;2.15;;;1.35;;
49722;SDS011;43484;43.608;1.458;2024-01-07T14:39:38;4.70;;;1.67;;
49722;SDS011;43484;43.608;1.458;2024-01-07T14:42:04;2.72;;;0.98;;
49722;SDS011;43484;43.608;1.458;2024-01-07T14:44:31;3.45;;;1.35;;
49722;SDS011;43484;43.608;1.458;2024-01-07T14:47:13;2.78;;;0.85;;
49722;SDS011;43484;43.608;1.458;2024-01-07T14:49:41;4.38;;;1.10;;
49722;SDS011;43484;43.608;1.458;2024-01-07T14:52:08;2.65;;;0.90;;
49722;SDS011;43484;43.608;1.458;2024-01-07T14:54:35;1.95;;;0.80;;
49722;SDS011;43484;43.608;1.458;2024-01-07T14:57:04;3.33;;;1.13;;
49722;SDS011;43484;43.608;1.458;2024-01-07T14:59:33;5.07;;;1.23;;